createdAt,value
2022-09-24T00:05:37.081Z,98761.88
2022-09-24T00:12:07.185Z,98759.38
2022-09-24T00:18:35.876Z,98755.80
2022-09-24T00:25:51.104Z,98753.15
2022-09-24T00:32:33.829Z,98742.00
2022-09-24T00:39:11.999Z,98735.19
2022-09-24T00:46:08.204Z,98734.33
2022-09-24T00:52:50.107Z,98725.55
2022-09-24T00:59:42.126Z,98722.64
2022-09-24T01:06:28.050Z,98716.85
2022-09-24T01:13:43.436Z,98709.77
2022-09-24T01:20:46.182Z,98699.55
2022-09-24T01:27:37.977Z,98692.02
2022-09-24T01:34:14.026Z,98687.86
2022-09-24T01:40:53.325Z,98679.56
2022-09-24T01:47:39.835Z,98679.09
2022-09-24T01:54:38.044Z,98676.69
2022-09-24T02:01:31.104Z,98674.35
2022-09-24T02:07:23.687Z,98673.36
2022-09-24T02:14:26.009Z,98669.60
2022-09-24T02:20:32.740Z,98680.29
2022-09-24T02:27:18.773Z,98682.09
2022-09-24T02:33:55.742Z,98682.95
2022-09-24T02:40:46.181Z,98681.68
2022-09-24T02:47:37.106Z,98677.59
2022-09-24T02:54:01.588Z,98673.44
2022-09-24T03:00:42.190Z,98669.95
2022-09-24T03:07:04.540Z,98662.44
2022-09-24T03:13:42.888Z,98659.20
2022-09-24T03:20:22.752Z,98655.98
2022-09-24T03:26:56.814Z,98654.52
2022-09-24T03:33:21.400Z,98652.61
2022-09-24T03:39:47.659Z,98647.84
2022-09-24T03:46:20.312Z,98648.21
2022-09-24T03:52:50.473Z,98655.02
2022-09-24T04:00:12.732Z,98665.55
2022-09-24T04:06:49.986Z,98659.01
2022-09-24T04:13:34.528Z,98649.39
2022-09-24T04:20:15.735Z,98643.54
2022-09-24T04:27:18.831Z,98635.41
2022-09-24T04:34:18.164Z,98624.04
2022-09-24T04:40:40.010Z,98622.64
2022-09-24T04:47:32.115Z,98626.11
2022-09-24T04:54:27.857Z,98628.04
2022-09-24T05:01:24.150Z,98623.39
2022-09-24T05:08:12.814Z,98616.48
2022-09-24T05:14:53.749Z,98615.89
2022-09-24T05:21:35.283Z,98610.29
2022-09-24T05:28:16.013Z,98604.16
2022-09-24T05:35:10.798Z,98609.92
2022-09-24T05:42:02.899Z,98614.21
2022-09-24T05:48:49.810Z,98618.47
2022-09-24T05:55:43.017Z,98623.02
2022-09-24T06:02:11.317Z,98618.66
2022-09-24T06:07:41.662Z,98617.30
2022-09-24T06:13:47.502Z,98619.60
2022-09-24T06:19:52.980Z,98618.64
2022-09-24T06:25:44.515Z,98616.35
2022-09-24T06:32:05.266Z,98623.21
2022-09-24T06:38:34.299Z,98626.88
2022-09-24T06:45:09.756Z,98629.07
2022-09-24T06:51:55.920Z,98623.91
2022-09-24T06:58:40.286Z,98627.09
2022-09-24T07:05:31.472Z,98625.23
2022-09-24T07:12:12.561Z,98625.07
2022-09-24T07:19:15.431Z,98628.04
2022-09-24T07:25:49.972Z,98627.39
2022-09-24T07:32:00.558Z,98638.59
2022-09-24T07:38:44.867Z,98649.38
2022-09-24T07:45:16.171Z,98647.36
2022-09-24T07:51:03.131Z,98651.13
2022-09-24T07:56:17.948Z,98656.73
2022-09-24T08:01:24.689Z,98656.63
2022-09-24T08:06:48.612Z,98656.55
2022-09-24T08:12:46.815Z,98658.27
2022-09-24T08:19:00.987Z,98656.86
2022-09-24T08:24:32.682Z,98651.15
2022-09-24T08:30:08.629Z,98655.23
2022-09-24T08:36:04.808Z,98653.46
2022-09-24T08:42:54.401Z,98649.46
2022-09-24T08:48:48.178Z,98653.83
2022-09-24T08:55:06.077Z,98650.18
2022-09-24T09:01:00.481Z,98648.25
2022-09-24T09:07:13.942Z,98643.14
2022-09-24T09:13:51.208Z,98621.36
2022-09-24T09:20:47.530Z,98616.09
2022-09-24T09:27:12.615Z,98607.98
2022-09-24T09:33:43.088Z,98607.68
2022-09-24T09:40:08.933Z,98610.66
2022-09-24T09:46:58.161Z,98609.83
2022-09-24T09:53:35.739Z,98603.95
2022-09-24T09:59:54.721Z,98610.77
2022-09-24T10:06:53.919Z,98602.98
2022-09-24T10:13:45.769Z,98609.88
2022-09-24T10:19:32.643Z,98608.69
2022-09-24T10:24:59.943Z,98607.39
2022-09-24T10:30:35.659Z,98603.64
2022-09-24T10:35:52.524Z,98599.86
2022-09-24T10:42:25.696Z,98590.13
2022-09-24T10:47:59.715Z,98583.86
2022-09-24T10:53:40.912Z,98582.70
2022-09-24T11:00:39.401Z,98579.39
2022-09-24T11:06:51.586Z,98570.08
2022-09-24T11:12:45.897Z,98565.92
2022-09-24T11:19:21.031Z,98576.87
2022-09-24T11:26:11.863Z,98572.50
2022-09-24T11:32:34.368Z,98563.77
2022-09-24T11:39:01.702Z,98577.80
2022-09-24T11:45:18.895Z,98575.44
2022-09-24T11:51:39.231Z,98566.10
2022-09-24T11:57:53.263Z,98570.78
2022-09-24T12:04:13.843Z,98565.67
2022-09-24T12:10:03.095Z,98563.96
2022-09-24T12:15:43.194Z,98551.56
2022-09-24T12:21:32.199Z,98545.09
2022-09-24T12:27:32.397Z,98541.40
2022-09-24T12:33:31.759Z,98541.73
2022-09-24T12:39:52.988Z,98541.73
2022-09-24T12:45:41.590Z,98536.92
2022-09-24T12:51:05.220Z,98528.77
2022-09-24T12:56:41.183Z,98518.84
2022-09-24T13:02:14.246Z,98513.01
2022-09-24T13:08:29.913Z,98506.46
2022-09-24T13:14:46.018Z,98496.90
2022-09-24T13:21:36.141Z,98494.65
2022-09-24T13:28:01.381Z,98490.16
2022-09-24T13:34:25.216Z,98487.75
2022-09-24T13:40:37.742Z,98487.46
2022-09-24T13:46:44.337Z,98477.56
2022-09-24T13:53:14.454Z,98469.48
2022-09-24T13:59:04.404Z,98469.95
2022-09-24T14:04:46.541Z,98464.78
2022-09-24T14:10:48.919Z,98462.73
2022-09-24T14:16:37.910Z,98457.63
2022-09-24T14:22:59.251Z,98454.70
2022-09-24T14:28:35.906Z,98462.21
2022-09-24T14:34:43.969Z,98454.86
2022-09-24T14:40:24.986Z,98459.73
2022-09-24T14:46:25.920Z,98453.11
2022-09-24T14:52:04.474Z,98450.02
2022-09-24T14:58:24.950Z,98450.14
2022-09-24T15:04:50.918Z,98450.27
2022-09-24T15:10:25.252Z,98447.36
2022-09-24T15:16:33.918Z,98450.53
2022-09-24T15:22:28.966Z,98448.63
2022-09-24T15:28:22.734Z,98450.58
2022-09-24T15:34:29.863Z,98449.88
2022-09-24T15:40:30.868Z,98451.67
2022-09-24T15:46:34.508Z,98448.20
2022-09-24T15:52:53.198Z,98444.39
2022-09-24T15:59:02.828Z,98443.30
2022-09-24T16:04:53.939Z,98445.00
2022-09-24T16:10:33.935Z,98441.91
2022-09-24T16:16:16.376Z,98447.15
2022-09-24T16:22:18.239Z,98444.45
2022-09-24T16:28:33.602Z,98446.35
2022-09-24T16:34:57.132Z,98446.61
2022-09-24T16:41:14.255Z,98455.73
2022-09-24T16:47:28.689Z,98458.60
2022-09-24T16:53:34.472Z,98451.14
2022-09-24T17:00:08.799Z,98458.65
2022-09-24T17:06:33.515Z,98463.53
2022-09-24T17:13:02.486Z,98463.16
2022-09-24T17:19:15.632Z,98458.63
2022-09-24T17:25:25.381Z,98451.98
2022-09-24T17:31:21.329Z,98454.89
2022-09-24T17:37:12.016Z,98451.15
2022-09-24T17:43:11.868Z,98451.69
2022-09-24T17:49:07.113Z,98449.66
2022-09-24T17:54:47.408Z,98454.59
2022-09-24T17:59:57.730Z,98456.44
2022-09-24T18:06:13.068Z,98459.55
2022-09-24T18:12:34.918Z,98454.97
2022-09-24T18:18:31.995Z,98455.40
2022-09-24T18:24:25.532Z,98454.94
2022-09-24T18:30:51.439Z,98460.03
2022-09-24T18:36:17.674Z,98464.95
2022-09-24T18:41:50.927Z,98471.77
2022-09-24T18:47:05.921Z,98475.23
2022-09-24T18:53:06.025Z,98471.73
2022-09-24T18:58:29.540Z,98469.66
2022-09-24T19:04:31.731Z,98477.70
2022-09-24T19:10:20.654Z,98484.38
2022-09-24T19:17:09.464Z,98479.59
2022-09-24T19:23:52.659Z,98476.25
2022-09-24T19:30:24.631Z,98473.71
2022-09-24T19:36:25.425Z,98473.49
2022-09-24T19:42:06.803Z,98471.30
2022-09-24T19:47:09.041Z,98468.73
2022-09-24T19:52:42.841Z,98465.88
2022-09-24T19:58:08.375Z,98471.52
2022-09-24T20:04:00.990Z,98472.14
2022-09-24T20:09:59.381Z,98469.20
2022-09-24T20:16:17.292Z,98463.75
2022-09-24T20:22:50.082Z,98469.42
2022-09-24T20:28:52.885Z,98471.73
2022-09-24T20:34:42.169Z,98472.46
2022-09-24T20:40:13.195Z,98470.82
2022-09-24T20:46:31.872Z,98472.51
2022-09-24T20:52:51.288Z,98475.09
2022-09-24T20:59:21.045Z,98472.47
2022-09-24T21:05:21.919Z,98458.76
2022-09-24T21:11:38.196Z,98466.40
2022-09-24T21:18:21.652Z,98466.85
2022-09-24T21:25:25.940Z,98456.35
2022-09-24T21:31:32.926Z,98462.86
2022-09-24T21:38:19.846Z,98468.51
2022-09-24T21:45:02.712Z,98465.75
2022-09-24T21:51:48.517Z,98463.41
2022-09-24T21:58:02.594Z,98459.77
2022-09-24T22:04:31.036Z,98455.81
2022-09-24T22:10:42.644Z,98455.45
2022-09-24T22:17:42.997Z,98448.52
2022-09-24T22:24:01.024Z,98454.67
2022-09-24T22:31:09.591Z,98453.96
2022-09-24T22:37:34.236Z,98455.77
2022-09-24T22:43:54.236Z,98455.58
2022-09-24T22:50:12.361Z,98450.90
2022-09-24T22:55:58.499Z,98446.95
2022-09-24T23:02:20.406Z,98445.59
2022-09-24T23:08:10.967Z,98452.63
2022-09-24T23:14:48.132Z,98452.98
2022-09-24T23:20:37.981Z,98452.16
2022-09-24T23:26:45.009Z,98445.83
2022-09-24T23:32:54.913Z,98452.38
2022-09-24T23:39:14.467Z,98445.64
2022-09-24T23:45:25.510Z,98448.02
2022-09-24T23:51:51.642Z,98440.70
2022-09-24T23:58:36.876Z,98433.03
